Time;durP1;ratioP1;P1;durP2;ratioP2;P2;SDS_P1;SDS_P2;PMS_P1;PMS_P2;Temp;Humidity;BMP_temperature;BMP_pressure;BME280_temperature;BME280_humidity;BME280_pressure;Samples;Min_cycle;Max_cycle;Signal;HPM_P1;HPM_P2
2021/10/20 00:01:37;;;;;;;18.23;13.48;;;15.90;99.90;;;;;;4901631;29;20039;-84
2021/10/20 00:04:04;;;;;;;17.88;13.20;;;15.80;99.90;;;;;;4899827;29;20115;-83
2021/10/20 00:06:30;;;;;;;18.30;12.25;;;15.80;99.90;;;;;;4904700;29;20047;-83
2021/10/20 00:08:56;;;;;;;18.08;13.65;;;15.80;99.90;;;;;;4876229;29;20047;-83
2021/10/20 00:11:25;;;;;;;17.45;12.85;;;15.80;99.90;;;;;;4878978;29;20158;-85
2021/10/20 00:13:51;;;;;;;19.83;13.38;;;15.80;99.90;;;;;;4874821;29;22268;-83
2021/10/20 00:16:18;;;;;;;17.80;13.18;;;15.80;99.90;;;;;;4888040;29;20036;-85
2021/10/20 00:18:48;;;;;;;16.58;12.95;;;15.70;99.90;;;;;;4904860;29;20063;-83
2021/10/20 00:21:16;;;;;;;18.38;12.85;;;15.80;99.90;;;;;;4919712;29;20056;-83
2021/10/20 00:23:42;;;;;;;15.73;12.45;;;15.70;99.90;;;;;;4880241;29;20036;-83
2021/10/20 00:26:08;;;;;;;17.15;12.60;;;15.70;99.90;;;;;;4891685;29;20510;-83
2021/10/20 00:28:34;;;;;;;18.85;11.98;;;15.70;99.90;;;;;;4872067;29;20094;-84
2021/10/20 00:30:59;;;;;;;14.90;12.05;;;15.70;99.90;;;;;;4879474;29;20047;-83
2021/10/20 00:33:25;;;;;;;15.82;12.05;;;15.80;99.90;;;;;;4849533;29;20040;-82
2021/10/20 00:35:51;;;;;;;16.15;11.95;;;15.70;99.90;;;;;;4889871;29;20039;-84
2021/10/20 00:38:16;;;;;;;15.43;11.90;;;15.70;99.90;;;;;;4871119;29;20138;-83
2021/10/20 00:40:42;;;;;;;15.27;11.80;;;15.70;99.90;;;;;;4873757;29;20110;-82
2021/10/20 00:43:08;;;;;;;17.42;11.60;;;15.70;99.90;;;;;;4877599;29;20047;-83
2021/10/20 00:45:35;;;;;;;16.10;11.48;;;15.70;99.90;;;;;;4874725;29;20492;-83
2021/10/20 00:48:01;;;;;;;14.35;11.63;;;15.70;99.90;;;;;;4891953;29;20043;-83
2021/10/20 00:50:27;;;;;;;17.63;11.45;;;15.70;99.90;;;;;;4897212;29;20491;-83
2021/10/20 00:52:53;;;;;;;13.57;10.63;;;15.70;99.90;;;;;;4888963;29;20036;-82
2021/10/20 00:55:19;;;;;;;16.60;10.70;;;15.70;99.90;;;;;;4862695;29;20171;-84
2021/10/20 00:57:46;;;;;;;18.55;11.20;;;15.60;99.90;;;;;;4908266;29;20048;-85
2021/10/20 01:00:15;;;;;;;15.63;10.55;;;15.60;99.90;;;;;;4887059;29;20050;-84
2021/10/20 01:02:41;;;;;;;14.25;10.52;;;15.70;99.90;;;;;;4888798;29;20208;-85
2021/10/20 01:05:09;;;;;;;14.82;9.82;;;15.60;99.90;;;;;;4880568;29;20443;-83
2021/10/20 01:07:37;;;;;;;12.52;9.30;;;15.70;99.90;;;;;;4882697;29;20107;-84
2021/10/20 01:10:09;;;;;;;17.73;9.85;;;15.70;99.90;;;;;;4878426;29;20036;-85
2021/10/20 01:12:36;;;;;;;13.43;10.02;;;15.70;99.90;;;;;;4884143;29;20523;-83
2021/10/20 01:15:21;;;;;;;11.75;9.52;;;15.70;99.90;;;;;;4893851;29;20315;-83
2021/10/20 01:17:47;;;;;;;12.02;9.55;;;15.70;99.90;;;;;;4895257;29;20040;-82
2021/10/20 01:20:15;;;;;;;14.68;9.30;;;15.70;99.90;;;;;;4877137;29;20048;-83
2021/10/20 01:22:41;;;;;;;13.82;9.38;;;15.70;99.90;;;;;;4881119;29;20100;-85
2021/10/20 01:25:08;;;;;;;15.52;9.85;;;15.70;99.90;;;;;;4886601;29;20047;-85
2021/10/20 01:27:35;;;;;;;12.50;9.50;;;15.70;99.90;;;;;;4882672;29;20047;-83
2021/10/20 01:30:02;;;;;;;13.02;9.13;;;15.60;99.90;;;;;;4899965;29;20123;-84
2021/10/20 01:32:28;;;;;;;11.15;9.05;;;15.60;99.90;;;;;;4885319;29;20040;-84
2021/10/20 01:34:55;;;;;;;13.70;9.32;;;15.60;99.90;;;;;;4860600;29;20039;-83
2021/10/20 01:37:30;;;;;;;12.63;9.23;;;15.60;99.90;;;;;;4893849;29;20503;-85
2021/10/20 01:39:57;;;;;;;14.43;9.60;;;15.60;99.90;;;;;;4881842;29;20052;-83
2021/10/20 01:42:27;;;;;;;14.68;8.75;;;15.60;99.90;;;;;;4882235;29;20147;-80
2021/10/20 01:44:54;;;;;;;10.35;8.63;;;15.50;99.90;;;;;;4869857;29;20107;-84
2021/10/20 01:47:20;;;;;;;10.57;9.15;;;15.50;99.90;;;;;;4895908;29;20063;-84
2021/10/20 01:49:46;;;;;;;10.25;8.75;;;15.50;99.90;;;;;;4883923;29;20032;-82
2021/10/20 01:52:12;;;;;;;11.23;8.48;;;15.50;99.90;;;;;;4867942;29;20039;-84
2021/10/20 01:54:38;;;;;;;13.48;9.18;;;15.50;99.90;;;;;;4872155;29;20047;-83
2021/10/20 01:57:04;;;;;;;17.85;9.20;;;15.50;99.90;;;;;;4881356;29;20123;-82
2021/10/20 01:59:30;;;;;;;11.80;8.32;;;15.50;99.90;;;;;;4889338;29;20071;-84
2021/10/20 02:01:56;;;;;;;13.10;8.85;;;15.40;99.90;;;;;;4881216;29;20071;-83
2021/10/20 02:04:21;;;;;;;12.52;9.38;;;15.40;99.90;;;;;;4878029;29;20052;-84
2021/10/20 02:06:47;;;;;;;11.73;8.93;;;15.40;99.90;;;;;;4886963;29;20524;-84
2021/10/20 02:09:13;;;;;;;13.90;8.95;;;15.40;99.90;;;;;;4874504;29;20127;-83
2021/10/20 02:11:41;;;;;;;12.30;8.43;;;15.30;99.90;;;;;;4893795;29;20050;-83
2021/10/20 02:14:09;;;;;;;14.23;8.05;;;15.30;99.90;;;;;;4900343;29;20795;-82
2021/10/20 02:16:35;;;;;;;11.98;8.23;;;15.30;99.90;;;;;;4861811;29;20491;-83
2021/10/20 02:19:01;;;;;;;11.18;8.18;;;15.20;99.90;;;;;;4884792;29;20575;-84
2021/10/20 02:21:27;;;;;;;11.40;8.43;;;15.20;99.90;;;;;;4891602;29;20040;-84
2021/10/20 02:23:53;;;;;;;11.77;8.10;;;15.20;99.90;;;;;;4861055;29;20044;-86
2021/10/20 02:26:19;;;;;;;11.32;8.88;;;15.20;99.90;;;;;;4850811;29;20372;-84
2021/10/20 02:28:45;;;;;;;15.38;8.35;;;15.20;99.90;;;;;;4878378;29;20099;-85
2021/10/20 02:31:12;;;;;;;11.95;7.82;;;15.20;99.90;;;;;;4875240;29;20404;-85
2021/10/20 02:33:37;;;;;;;11.15;8.05;;;15.10;99.90;;;;;;4875893;29;20028;-84
2021/10/20 02:36:03;;;;;;;17.95;8.30;;;15.10;99.90;;;;;;4881439;29;20088;-84
2021/10/20 02:38:29;;;;;;;11.13;7.50;;;15.10;99.90;;;;;;4884151;29;20063;-83
2021/10/20 02:40:55;;;;;;;12.05;8.15;;;15.10;99.90;;;;;;4896763;29;20070;-84
2021/10/20 02:43:21;;;;;;;11.48;7.65;;;15.10;99.90;;;;;;4863505;29;20499;-83
2021/10/20 02:45:47;;;;;;;9.55;7.70;;;15.00;99.90;;;;;;4866632;29;20051;-84
2021/10/20 02:48:12;;;;;;;12.80;8.00;;;15.10;99.90;;;;;;4867674;29;20490;-83
2021/10/20 02:50:38;;;;;;;11.93;8.50;;;15.00;99.90;;;;;;4865027;29;20180;-84
2021/10/20 02:53:04;;;;;;;10.75;7.85;;;15.00;99.90;;;;;;4908801;29;22045;-85
2021/10/20 02:55:30;;;;;;;11.93;9.02;;;14.90;99.90;;;;;;4877284;29;20390;-85
2021/10/20 02:57:56;;;;;;;11.80;8.50;;;14.90;99.90;;;;;;4873928;29;20043;-81
2021/10/20 03:00:22;;;;;;;12.63;8.15;;;14.90;99.90;;;;;;4864750;29;20523;-83
2021/10/20 03:02:48;;;;;;;10.82;8.73;;;14.90;99.90;;;;;;4892252;29;20164;-83
2021/10/20 03:05:14;;;;;;;14.55;9.27;;;14.90;99.90;;;;;;4890952;29;20257;-84
2021/10/20 03:07:46;;;;;;;12.48;8.70;;;14.90;99.90;;;;;;4859769;29;20040;-85
2021/10/20 03:10:12;;;;;;;16.48;9.25;;;14.90;99.90;;;;;;4892635;29;20080;-84
2021/10/20 03:12:37;;;;;;;14.25;9.30;;;14.90;99.90;;;;;;4873901;29;20079;-82
2021/10/20 03:15:04;;;;;;;12.90;8.68;;;14.90;99.90;;;;;;4884207;29;20487;-84
2021/10/20 03:17:29;;;;;;;14.32;8.80;;;14.90;99.90;;;;;;4887302;29;20040;-84
2021/10/20 03:19:55;;;;;;;13.38;9.05;;;14.90;99.90;;;;;;4844566;29;20391;-83
2021/10/20 03:22:21;;;;;;;11.82;9.43;;;14.90;99.90;;;;;;4894182;29;20092;-83
2021/10/20 03:24:46;;;;;;;11.95;9.25;;;14.90;99.90;;;;;;4851591;29;20438;-86
2021/10/20 03:27:12;;;;;;;15.93;9.18;;;14.90;99.90;;;;;;4870791;29;20043;-83
2021/10/20 03:29:38;;;;;;;20.33;10.35;;;14.90;99.90;;;;;;4866840;29;20743;-83
2021/10/20 03:32:04;;;;;;;13.95;9.73;;;14.90;99.90;;;;;;4867864;29;20476;-84
2021/10/20 03:34:30;;;;;;;15.18;9.90;;;14.90;99.90;;;;;;4885466;29;20456;-83
2021/10/20 03:36:56;;;;;;;13.13;9.27;;;14.90;99.90;;;;;;4870983;29;20178;-85
2021/10/20 03:39:21;;;;;;;14.60;9.68;;;14.90;99.90;;;;;;4871369;29;20039;-82
2021/10/20 03:41:47;;;;;;;13.52;9.88;;;14.90;99.90;;;;;;4863929;29;20130;-84
2021/10/20 03:44:13;;;;;;;16.90;10.07;;;14.90;99.90;;;;;;4855525;29;20047;-83
2021/10/20 03:46:38;;;;;;;18.23;10.05;;;15.00;99.90;;;;;;4867908;29;20103;-83
2021/10/20 03:49:04;;;;;;;13.55;9.43;;;14.90;99.90;;;;;;4876044;29;20051;-83
2021/10/20 03:51:30;;;;;;;12.77;9.32;;;15.00;99.90;;;;;;4869145;29;20044;-82
2021/10/20 03:53:55;;;;;;;14.38;10.00;;;15.00;99.90;;;;;;4864984;29;20044;-84
2021/10/20 03:56:21;;;;;;;18.05;10.68;;;14.90;99.90;;;;;;4852144;29;20133;-84
2021/10/20 03:58:47;;;;;;;15.75;10.10;;;14.90;99.90;;;;;;4887814;29;20039;-83
2021/10/20 04:01:13;;;;;;;16.92;10.30;;;14.90;99.90;;;;;;4853641;29;20108;-83
2021/10/20 04:03:38;;;;;;;18.02;9.40;;;14.90;99.90;;;;;;4880850;29;20044;-83
2021/10/20 04:06:04;;;;;;;12.95;9.90;;;14.90;99.90;;;;;;4845878;29;20050;-84
2021/10/20 04:08:30;;;;;;;16.83;10.77;;;14.90;99.90;;;;;;4877577;29;21602;-83
2021/10/20 04:10:55;;;;;;;14.98;10.18;;;14.90;99.90;;;;;;4857809;29;20032;-85
2021/10/20 04:13:21;;;;;;;13.63;9.80;;;14.80;99.90;;;;;;4859553;29;20039;-84
2021/10/20 04:15:47;;;;;;;15.10;9.88;;;14.80;99.90;;;;;;4884251;29;20036;-84
2021/10/20 04:18:13;;;;;;;20.02;10.40;;;14.80;99.90;;;;;;4864213;29;20040;-86
2021/10/20 04:20:39;;;;;;;14.23;10.25;;;14.80;99.90;;;;;;4866202;29;20087;-83
2021/10/20 04:23:04;;;;;;;15.52;11.05;;;14.90;99.90;;;;;;4864708;29;20044;-85
2021/10/20 04:25:30;;;;;;;13.82;9.95;;;14.90;99.90;;;;;;4858142;29;20040;-83
2021/10/20 04:27:56;;;;;;;15.25;10.35;;;14.80;99.90;;;;;;4851457;29;20722;-84
2021/10/20 04:30:23;;;;;;;15.25;10.50;;;14.90;99.90;;;;;;4849383;29;20040;-83
2021/10/20 04:32:49;;;;;;;21.42;11.25;;;14.90;99.90;;;;;;4865886;29;20044;-83
2021/10/20 04:35:19;;;;;;;15.13;10.70;;;14.90;99.90;;;;;;4853531;29;20122;-84
2021/10/20 04:37:44;;;;;;;16.45;11.40;;;14.90;99.90;;;;;;4876742;29;20036;-83
2021/10/20 04:40:11;;;;;;;13.40;10.40;;;14.90;99.90;;;;;;4879102;29;20054;-85
2021/10/20 04:42:38;;;;;;;19.23;11.35;;;14.90;99.90;;;;;;4873155;29;20048;-84
2021/10/20 04:45:04;;;;;;;16.88;11.00;;;14.90;99.90;;;;;;4874235;29;20099;-83
2021/10/20 04:47:30;;;;;;;14.68;11.48;;;14.90;99.90;;;;;;4847992;29;20052;-85
2021/10/20 04:49:55;;;;;;;15.40;10.73;;;14.90;99.90;;;;;;4876428;29;20078;-84
2021/10/20 04:52:24;;;;;;;20.13;11.52;;;14.80;99.90;;;;;;4894805;29;20456;-83
2021/10/20 04:54:51;;;;;;;18.27;11.30;;;14.80;99.90;;;;;;4877031;29;20096;-84
2021/10/20 04:57:17;;;;;;;14.05;10.80;;;14.80;99.90;;;;;;4859431;29;20044;-84
2021/10/20 04:59:43;;;;;;;17.20;12.20;;;14.90;99.90;;;;;;4876935;29;20510;-82
2021/10/20 05:02:09;;;;;;;15.65;10.85;;;14.90;99.90;;;;;;4865555;29;20621;-84
2021/10/20 05:04:34;;;;;;;19.40;11.90;;;14.90;99.90;;;;;;4853194;29;20032;-83
2021/10/20 05:07:10;;;;;;;16.23;12.27;;;14.90;99.90;;;;;;4893408;29;20487;-85
2021/10/20 05:09:45;;;;;;;21.52;12.05;;;14.90;99.90;;;;;;4906593;29;20040;-85
2021/10/20 05:12:28;;;;;;;18.08;12.77;;;15.00;99.90;;;;;;4906552;29;20040;-82
2021/10/20 05:14:57;;;;;;;21.30;12.45;;;15.00;99.90;;;;;;4887113;29;20479;-83
2021/10/20 05:17:22;;;;;;;17.75;12.63;;;15.00;99.90;;;;;;4899030;29;20047;-85
2021/10/20 05:19:48;;;;;;;20.63;13.25;;;15.10;99.90;;;;;;4896881;29;21200;-86
2021/10/20 05:22:14;;;;;;;17.00;13.18;;;15.10;99.90;;;;;;4852638;29;20074;-86
2021/10/20 05:24:39;;;;;;;21.23;13.75;;;15.20;99.90;;;;;;4848221;29;20201;-84
2021/10/20 05:27:05;;;;;;;23.00;14.38;;;15.20;99.90;;;;;;4879173;29;20250;-83
2021/10/20 05:29:32;;;;;;;22.00;13.98;;;15.20;99.90;;;;;;4880153;29;20054;-84
2021/10/20 05:31:59;;;;;;;21.20;14.60;;;15.30;99.90;;;;;;4855325;29;20552;-85
2021/10/20 05:34:25;;;;;;;21.80;14.77;;;15.30;99.90;;;;;;4879517;29;20511;-83
2021/10/20 05:36:51;;;;;;;19.75;13.70;;;15.40;99.90;;;;;;4903705;29;20040;-86
2021/10/20 05:39:17;;;;;;;22.52;15.20;;;15.40;99.90;;;;;;4862169;29;20402;-81
2021/10/20 05:41:42;;;;;;;22.20;14.80;;;15.50;99.90;;;;;;4857629;29;20483;-85
2021/10/20 05:44:08;;;;;;;22.02;15.50;;;15.50;99.90;;;;;;4877077;29;20048;-83
2021/10/20 05:46:34;;;;;;;22.40;15.02;;;15.60;99.90;;;;;;4885555;29;20239;-83
2021/10/20 05:49:00;;;;;;;20.83;14.32;;;15.60;99.90;;;;;;4900967;29;20039;-85
2021/10/20 05:51:25;;;;;;;18.60;14.10;;;15.60;99.90;;;;;;4862713;29;20040;-86
2021/10/20 05:53:51;;;;;;;24.50;15.20;;;15.70;99.90;;;;;;4856402;29;20055;-82
2021/10/20 05:56:17;;;;;;;24.90;14.57;;;15.60;99.90;;;;;;4869246;29;20371;-85
2021/10/20 05:58:43;;;;;;;22.38;14.93;;;15.70;99.90;;;;;;4870564;29;20534;-82
2021/10/20 06:01:10;;;;;;;21.48;14.50;;;15.70;99.90;;;;;;4880001;29;20338;-83
2021/10/20 06:03:36;;;;;;;21.00;14.18;;;15.70;99.50;;;;;;4878149;29;20052;-84
2021/10/20 06:06:02;;;;;;;22.73;15.23;;;15.80;99.60;;;;;;4886355;29;20044;-83
2021/10/20 06:08:28;;;;;;;23.15;14.43;;;15.80;99.60;;;;;;4880306;29;20574;-85
2021/10/20 06:10:54;;;;;;;24.45;15.27;;;15.90;99.50;;;;;;4843600;29;20435;-84
2021/10/20 06:13:19;;;;;;;22.70;16.15;;;15.90;99.60;;;;;;4863956;29;20044;-82
2021/10/20 06:15:45;;;;;;;21.52;15.30;;;15.90;99.90;;;;;;4869761;29;20411;-85
2021/10/20 06:18:15;;;;;;;24.35;13.90;;;15.90;99.90;;;;;;4878335;29;20043;-84
2021/10/20 06:20:40;;;;;;;21.98;15.10;;;15.90;99.90;;;;;;4888725;29;20044;-85
2021/10/20 06:23:06;;;;;;;24.33;13.90;;;16.00;99.90;;;;;;4869726;29;20058;-85
2021/10/20 06:25:32;;;;;;;22.50;14.48;;;16.00;99.90;;;;;;4885552;29;20536;-85
2021/10/20 06:27:58;;;;;;;22.27;14.32;;;16.10;99.90;;;;;;4876426;29;20040;-85
2021/10/20 06:30:24;;;;;;;20.23;14.27;;;16.10;99.90;;;;;;4876515;29;20381;-84
2021/10/20 06:32:49;;;;;;;18.00;13.00;;;16.20;99.80;;;;;;4893175;29;20059;-82
2021/10/20 06:35:15;;;;;;;21.23;13.68;;;16.30;99.60;;;;;;4872352;29;20040;-85
2021/10/20 06:37:51;;;;;;;21.02;14.20;;;16.30;99.70;;;;;;4894005;29;20067;-85
2021/10/20 06:40:17;;;;;;;20.92;13.45;;;16.40;99.80;;;;;;4880304;29;20566;-84
2021/10/20 06:42:43;;;;;;;18.30;12.98;;;16.40;99.70;;;;;;4871254;29;20552;-84
2021/10/20 06:45:10;;;;;;;18.25;13.23;;;16.40;99.70;;;;;;4895837;29;20154;-81
2021/10/20 06:47:36;;;;;;;19.05;13.68;;;16.50;99.70;;;;;;4879169;29;21350;-83
2021/10/20 06:50:02;;;;;;;20.05;13.50;;;16.40;99.60;;;;;;4899222;29;20051;-84
2021/10/20 06:52:28;;;;;;;23.50;14.73;;;16.50;99.70;;;;;;4899540;29;20043;-83
2021/10/20 06:54:54;;;;;;;17.67;13.88;;;16.40;99.80;;;;;;4880319;29;20402;-85
2021/10/20 06:57:19;;;;;;;18.92;12.77;;;16.40;99.80;;;;;;4883825;29;20376;-83
2021/10/20 06:59:45;;;;;;;19.15;13.40;;;16.40;99.70;;;;;;4870558;29;20059;-84
2021/10/20 07:02:11;;;;;;;22.25;13.55;;;16.40;99.80;;;;;;4870269;29;20068;-83
2021/10/20 07:04:36;;;;;;;20.35;12.63;;;16.40;99.90;;;;;;4888013;29;20127;-83
2021/10/20 07:07:04;;;;;;;17.17;12.93;;;16.40;99.80;;;;;;4884357;29;20040;-82
2021/10/20 07:09:30;;;;;;;21.38;13.05;;;16.40;99.80;;;;;;4852847;29;20044;-84
2021/10/20 07:11:58;;;;;;;17.02;12.13;;;16.40;99.80;;;;;;4883157;29;20052;-85
2021/10/20 07:14:23;;;;;;;21.67;13.55;;;16.40;99.70;;;;;;4877648;29;20099;-82
2021/10/20 07:16:49;;;;;;;18.52;12.32;;;16.40;99.80;;;;;;4904040;29;20127;-84
2021/10/20 07:19:15;;;;;;;16.20;12.93;;;16.40;99.60;;;;;;4857324;29;20487;-83
2021/10/20 07:21:41;;;;;;;20.52;13.38;;;16.40;99.70;;;;;;4887558;29;20043;-83
2021/10/20 07:24:06;;;;;;;20.92;12.60;;;16.30;99.60;;;;;;4860908;29;20076;-82
2021/10/20 07:26:32;;;;;;;17.13;13.02;;;16.30;99.80;;;;;;4902489;29;20138;-82
2021/10/20 07:28:59;;;;;;;17.67;11.45;;;16.30;99.80;;;;;;4861430;29;20076;-88
2021/10/20 07:31:29;;;;;;;16.55;11.00;;;16.30;99.60;;;;;;4891251;29;20044;-84
2021/10/20 07:33:56;;;;;;;16.73;11.40;;;16.30;99.80;;;;;;4864649;29;20044;-84
2021/10/20 07:36:22;;;;;;;15.80;11.60;;;16.40;99.70;;;;;;4887467;29;20051;-84
2021/10/20 07:38:48;;;;;;;14.27;11.60;;;16.40;99.80;;;;;;4883527;29;20048;-82
2021/10/20 07:41:14;;;;;;;15.32;11.63;;;16.40;99.80;;;;;;4869069;29;20399;-83
2021/10/20 07:43:40;;;;;;;21.23;11.45;;;16.40;99.90;;;;;;4875227;29;20043;-86
2021/10/20 07:46:06;;;;;;;19.05;11.77;;;16.40;99.80;;;;;;4872280;29;20151;-83
2021/10/20 07:48:32;;;;;;;19.00;11.07;;;16.50;99.90;;;;;;4895692;29;20043;-83
2021/10/20 07:50:57;;;;;;;17.33;11.60;;;16.50;99.90;;;;;;4886285;29;20063;-86
2021/10/20 07:53:23;;;;;;;17.73;11.13;;;16.50;99.90;;;;;;4876657;29;20043;-82
2021/10/20 07:55:49;;;;;;;17.10;11.02;;;16.50;99.90;;;;;;4887112;29;20054;-84
2021/10/20 07:58:15;;;;;;;15.27;11.63;;;16.50;99.90;;;;;;4883803;29;20122;-83
2021/10/20 08:00:40;;;;;;;14.93;9.90;;;16.50;99.90;;;;;;4853745;29;20649;-82
2021/10/20 08:03:06;;;;;;;17.17;10.63;;;16.50;99.90;;;;;;4854176;29;20035;-83
2021/10/20 08:05:32;;;;;;;16.77;10.93;;;16.50;99.90;;;;;;4884144;29;20051;-82
2021/10/20 08:07:59;;;;;;;17.45;10.07;;;16.50;99.90;;;;;;4847849;29;20051;-82
2021/10/20 08:10:27;;;;;;;16.45;10.15;;;16.50;99.90;;;;;;4883827;29;20044;-85
2021/10/20 08:12:57;;;;;;;14.90;10.80;;;16.50;99.90;;;;;;4906719;29;20036;-84
2021/10/20 08:15:24;;;;;;;11.88;9.00;;;16.50;99.90;;;;;;4891981;29;20047;-82
2021/10/20 08:17:50;;;;;;;12.18;8.55;;;16.50;99.90;;;;;;4892446;29;20163;-84
2021/10/20 08:20:21;;;;;;;12.38;8.82;;;16.50;99.90;;;;;;4898096;29;20031;-83
2021/10/20 08:22:48;;;;;;;13.82;9.00;;;16.50;99.90;;;;;;4898859;29;20403;-83
2021/10/20 08:25:14;;;;;;;13.20;9.30;;;16.60;99.90;;;;;;4866620;29;20131;-82
2021/10/20 08:27:41;;;;;;;13.63;8.80;;;16.60;99.90;;;;;;4866055;29;20067;-83
2021/10/20 08:30:08;;;;;;;13.88;8.73;;;16.60;99.90;;;;;;4889055;29;20167;-83
2021/10/20 08:32:34;;;;;;;10.88;8.65;;;16.70;99.90;;;;;;4882882;29;20040;-83
2021/10/20 08:35:00;;;;;;;10.75;8.73;;;16.70;99.90;;;;;;4874697;29;20040;-83
2021/10/20 08:37:25;;;;;;;14.00;9.13;;;16.70;99.90;;;;;;4870363;29;20032;-82
2021/10/20 08:39:51;;;;;;;13.15;8.60;;;16.70;99.90;;;;;;4864137;29;20063;-85
2021/10/20 08:42:17;;;;;;;11.18;8.27;;;16.60;99.90;;;;;;4885456;29;20046;-83
2021/10/20 08:44:43;;;;;;;10.65;8.10;;;16.60;99.90;;;;;;4895834;29;21054;-81
2021/10/20 08:47:11;;;;;;;13.02;8.70;;;16.60;99.90;;;;;;4876399;29;20048;-85
2021/10/20 08:49:39;;;;;;;13.80;8.57;;;16.60;99.90;;;;;;4886115;29;20546;-84
2021/10/20 08:52:05;;;;;;;11.10;8.35;;;16.60;99.90;;;;;;4878750;29;20046;-86
2021/10/20 08:54:32;;;;;;;12.70;9.40;;;16.60;99.90;;;;;;4879873;29;20036;-82
2021/10/20 08:56:59;;;;;;;11.52;8.75;;;16.60;99.90;;;;;;4882175;29;20047;-83
2021/10/20 08:59:24;;;;;;;13.27;8.75;;;16.60;99.90;;;;;;4882589;29;20042;-83
2021/10/20 09:01:50;;;;;;;13.32;8.25;;;16.60;99.90;;;;;;4861688;29;20538;-82
2021/10/20 09:04:20;;;;;;;12.45;7.80;;;16.60;99.90;;;;;;4880263;29;20046;-84
2021/10/20 09:06:46;;;;;;;13.70;9.10;;;16.50;99.90;;;;;;4862651;29;20044;-84
2021/10/20 09:09:14;;;;;;;10.13;7.82;;;16.50;99.90;;;;;;4900377;29;20095;-81
2021/10/20 09:11:40;;;;;;;11.23;8.27;;;16.40;99.90;;;;;;4881292;29;20047;-84
2021/10/20 09:14:12;;;;;;;13.88;9.18;;;16.40;99.90;;;;;;4892963;29;20099;-83
2021/10/20 09:16:41;;;;;;;9.40;8.02;;;16.40;99.90;;;;;;4884333;29;20071;-86
2021/10/20 09:19:19;;;;;;;13.38;8.68;;;16.50;99.90;;;;;;4895928;29;20032;-83
2021/10/20 09:21:55;;;;;;;11.02;8.63;;;16.50;99.90;;;;;;4894218;29;20040;-86
2021/10/20 09:24:22;;;;;;;12.80;8.65;;;16.50;99.90;;;;;;4886054;29;20127;-84
2021/10/20 09:26:55;;;;;;;14.02;9.15;;;16.50;99.90;;;;;;4896687;29;20091;-83
2021/10/20 09:29:24;;;;;;;11.65;9.13;;;16.50;99.90;;;;;;4901647;29;20038;-82
2021/10/20 09:31:51;;;;;;;13.48;8.25;;;16.50;99.90;;;;;;4892281;29;20523;-83
2021/10/20 09:34:16;;;;;;;12.73;8.80;;;16.50;99.90;;;;;;4896188;29;20040;-83
2021/10/20 09:36:43;;;;;;;12.52;8.18;;;16.50;99.90;;;;;;4877972;29;20482;-82
2021/10/20 09:39:10;;;;;;;12.93;9.02;;;16.50;99.90;;;;;;4881600;29;20040;-82
2021/10/20 09:41:36;;;;;;;15.15;8.65;;;16.50;99.90;;;;;;4890103;29;20036;-84
2021/10/20 09:44:02;;;;;;;10.73;8.45;;;16.40;99.90;;;;;;4884424;29;20048;-82
2021/10/20 09:46:35;;;;;;;10.52;8.73;;;16.40;99.90;;;;;;4884006;29;20044;-84
2021/10/20 09:49:12;;;;;;;11.57;8.68;;;16.40;99.90;;;;;;4897171;29;20182;-84
2021/10/20 09:51:38;;;;;;;12.68;9.05;;;16.40;99.90;;;;;;4891701;29;20138;-86
2021/10/20 09:54:28;;;;;;;15.77;9.32;;;16.50;99.90;;;;;;4882690;29;20126;-83
2021/10/20 09:56:57;;;;;;;10.57;8.73;;;16.50;99.90;;;;;;4896482;29;20036;-82
2021/10/20 09:59:28;;;;;;;13.27;8.65;;;16.50;99.90;;;;;;4898884;29;20050;-83
2021/10/20 10:01:54;;;;;;;12.38;8.88;;;16.50;99.90;;;;;;4892270;29;20062;-82
2021/10/20 10:04:20;;;;;;;11.93;8.60;;;16.50;99.90;;;;;;4901417;29;20040;-83
2021/10/20 10:06:47;;;;;;;13.32;9.80;;;16.60;99.90;;;;;;4883151;29;20695;-83
2021/10/20 10:09:14;;;;;;;12.20;9.32;;;16.50;99.90;;;;;;4883488;29;20040;-84
2021/10/20 10:11:46;;;;;;;13.23;9.15;;;16.60;99.90;;;;;;4883693;29;20047;-83
2021/10/20 10:14:14;;;;;;;11.80;9.23;;;16.60;99.90;;;;;;4903603;29;20090;-82
2021/10/20 10:16:42;;;;;;;12.15;9.63;;;16.60;99.90;;;;;;4877403;29;20067;-84
2021/10/20 10:19:09;;;;;;;17.67;10.10;;;16.70;99.90;;;;;;4870006;29;20131;-82
2021/10/20 10:21:42;;;;;;;11.70;9.15;;;16.70;99.90;;;;;;4891026;29;20159;-82
2021/10/20 10:24:15;;;;;;;12.23;9.52;;;16.80;99.90;;;;;;4908131;29;20040;-82
2021/10/20 10:27:02;;;;;;;14.10;9.00;;;16.90;99.90;;;;;;4905658;29;20522;-85
2021/10/20 10:29:29;;;;;;;13.77;9.18;;;16.90;99.90;;;;;;4895166;29;20052;-83
2021/10/20 10:31:59;;;;;;;11.30;8.85;;;17.00;99.90;;;;;;4900719;29;20495;-82
2021/10/20 10:34:37;;;;;;;12.70;9.05;;;17.10;99.90;;;;;;4900441;29;20095;-82
2021/10/20 10:37:04;;;;;;;15.07;8.75;;;17.10;99.90;;;;;;4888502;29;20032;-84
2021/10/20 10:39:32;;;;;;;13.90;9.32;;;17.10;99.90;;;;;;4903955;29;20039;-82
2021/10/20 10:41:59;;;;;;;12.50;9.35;;;17.10;99.90;;;;;;4885910;29;20047;-84
2021/10/20 10:45:08;;;;;;;11.90;9.70;;;17.10;99.90;;;;;;4888705;29;20439;-83
2021/10/20 10:48:04;;;;;;;11.65;9.70;;;17.00;99.90;;;;;;4875297;29;20052;-83
2021/10/20 10:50:53;;;;;;;13.82;9.65;;;16.90;99.90;;;;;;4891865;29;20051;-82
2021/10/20 10:53:50;;;;;;;11.02;9.38;;;16.90;99.90;;;;;;4895421;29;20164;-83
2021/10/20 10:56:16;;;;;;;14.75;9.63;;;16.90;99.90;;;;;;4894707;29;20372;-83
2021/10/20 10:58:55;;;;;;;15.88;9.38;;;16.90;99.90;;;;;;4918751;29;20047;-84
2021/10/20 11:01:48;;;;;;;13.30;8.98;;;16.90;99.90;;;;;;4909860;29;20396;-82
2021/10/20 11:04:25;;;;;;;12.43;9.77;;;17.00;99.90;;;;;;4899198;29;20582;-84
2021/10/20 11:06:55;;;;;;;12.50;9.60;;;17.00;99.90;;;;;;4892836;29;20055;-83
2021/10/20 11:09:33;;;;;;;10.95;9.65;;;17.00;99.90;;;;;;4901839;29;20036;-83
2021/10/20 11:12:02;;;;;;;13.07;9.70;;;16.90;99.90;;;;;;4899170;29;20045;-83
2021/10/20 11:14:30;;;;;;;12.95;10.95;;;16.90;99.90;;;;;;4903463;29;20394;-82
2021/10/20 11:17:05;;;;;;;14.25;11.48;;;16.80;99.90;;;;;;4902009;29;20048;-83
2021/10/20 11:19:31;;;;;;;15.90;12.57;;;16.70;99.90;;;;;;4891858;29;20121;-82
2021/10/20 11:21:58;;;;;;;13.43;11.07;;;16.60;99.90;;;;;;4876179;29;20103;-81
2021/10/20 11:24:24;;;;;;;14.65;12.07;;;16.50;99.90;;;;;;4907140;29;20044;-81
2021/10/20 11:26:54;;;;;;;16.67;11.75;;;16.40;99.90;;;;;;4885459;29;20044;-83
2021/10/20 11:29:20;;;;;;;14.27;11.48;;;16.40;99.90;;;;;;4907561;29;20079;-83
2021/10/20 11:31:54;;;;;;;13.98;11.25;;;16.40;99.90;;;;;;4907594;29;20058;-83
2021/10/20 11:34:22;;;;;;;12.32;10.77;;;16.40;99.90;;;;;;4914032;29;20402;-81
2021/10/20 11:36:48;;;;;;;13.38;10.88;;;16.40;99.90;;;;;;4922767;29;20513;-83
2021/10/20 11:39:15;;;;;;;13.38;10.75;;;16.40;99.90;;;;;;4899424;29;20040;-82
2021/10/20 11:41:58;;;;;;;14.43;10.88;;;16.40;99.90;;;;;;4886515;29;20069;-82
2021/10/20 11:44:36;;;;;;;14.15;11.10;;;16.40;99.90;;;;;;4913157;29;20510;-83
2021/10/20 11:47:05;;;;;;;11.45;9.88;;;16.50;99.90;;;;;;4904485;29;20044;-82
2021/10/20 11:49:33;;;;;;;15.15;9.98;;;16.60;99.90;;;;;;4898450;29;20027;-83
2021/10/20 11:51:58;;;;;;;12.18;9.18;;;16.60;99.90;;;;;;4915336;29;20040;-84
2021/10/20 11:54:25;;;;;;;12.73;8.88;;;16.60;99.90;;;;;;4882449;29;20036;-83
2021/10/20 11:56:53;;;;;;;12.30;9.10;;;16.70;99.90;;;;;;4879421;29;20430;-86
2021/10/20 11:59:20;;;;;;;11.93;9.13;;;16.70;99.90;;;;;;4894991;29;20054;-84
2021/10/20 12:01:47;;;;;;;10.85;8.57;;;16.80;99.90;;;;;;4873747;29;20043;-84
2021/10/20 12:04:13;;;;;;;12.77;8.43;;;16.80;99.90;;;;;;4906060;29;20039;-81
2021/10/20 12:06:39;;;;;;;9.10;8.02;;;16.80;99.90;;;;;;4869347;29;20046;-81
2021/10/20 12:09:06;;;;;;;10.15;7.60;;;16.80;99.90;;;;;;4884485;29;20043;-82
2021/10/20 12:11:33;;;;;;;11.60;7.70;;;16.90;99.90;;;;;;4867511;29;20055;-82
2021/10/20 12:14:06;;;;;;;14.30;7.65;;;16.90;99.90;;;;;;4865857;29;20512;-84
2021/10/20 12:16:33;;;;;;;11.85;7.07;;;17.00;99.90;;;;;;4879358;29;20094;-84
2021/10/20 12:19:01;;;;;;;11.20;6.80;;;17.00;99.90;;;;;;4867736;29;20044;-82
2021/10/20 12:21:29;;;;;;;10.77;6.70;;;17.10;99.90;;;;;;4879760;29;20718;-84
2021/10/20 12:24:03;;;;;;;9.38;6.97;;;17.10;99.90;;;;;;4892317;29;20179;-82
2021/10/20 12:26:30;;;;;;;11.98;6.70;;;17.10;99.90;;;;;;4901778;29;20483;-82
2021/10/20 12:29:00;;;;;;;10.85;6.45;;;17.20;99.90;;;;;;4872179;29;20138;-83
2021/10/20 12:31:27;;;;;;;13.50;6.55;;;17.20;99.90;;;;;;4900171;29;20051;-83
2021/10/20 12:33:54;;;;;;;9.85;6.78;;;17.20;99.90;;;;;;4891495;29;20492;-82
2021/10/20 12:36:22;;;;;;;11.18;6.00;;;17.20;99.90;;;;;;4904158;29;20040;-84